Clarksville City, Texas
Current Conditions -  °F | °C
As of 10:15 PM on Sunday 25 Jan 2015 (Local Time) from KJXI Reporting Station
Clear Clear  
Wind Chill: 47°   Ceiling: Unl
Heat Index: 49°   Visibility: 10mi
Dew Point: 29°   Wind: 5mph
Humidity: 46%   Direction: 290°WNW
Pressure: 30.11"   Gusts: NA
Location:  32.5368°N, 94.8683°W
Report Text: KJXI 260415Z AUTO 29004KT 10SM CLR 10/M02 A3011 RMK AO2 T00951017
Loading
Personal Weather Stations






























Interactive Weather Map New forecast layout! Learn more

10-Day Weather Forecast

Advertisements
Track Severe Weather on mobile